Time;durP1;ratioP1;P1;durP2;ratioP2;P2;SDS_P1;SDS_P2;PMS_P1;PMS_P2;Temp;Humidity;BMP_temperature;BMP_pressure;BME280_temperature;BME280_humidity;BME280_pressure;Samples;Min_cycle;Max_cycle;Signal;HPM_P1;HPM_P2
2024/01/25 00:00:02;;;;;;;68.03;37.17;;;3.70;70.30;;;;;;4958463;28;20350;-67
2024/01/25 00:02:28;;;;;;;71.82;37.08;;;3.70;70.30;;;;;;4958358;28;20027;-67
2024/01/25 00:04:54;;;;;;;73.22;38.80;;;3.70;70.00;;;;;;4958356;28;20467;-67
2024/01/25 00:07:20;;;;;;;61.53;34.70;;;3.60;70.20;;;;;;4958809;28;20035;-67
2024/01/25 00:09:46;;;;;;;75.88;39.60;;;3.60;70.40;;;;;;4958293;28;20074;-67
2024/01/25 00:12:12;;;;;;;63.97;35.22;;;3.60;70.30;;;;;;4958494;28;20335;-67
2024/01/25 00:14:38;;;;;;;71.13;35.58;;;3.60;70.70;;;;;;4958464;28;20023;-67
2024/01/25 00:17:04;;;;;;;64.90;33.33;;;3.60;70.50;;;;;;4958286;28;20429;-67
2024/01/25 00:19:30;;;;;;;66.07;35.65;;;3.50;70.40;;;;;;4957218;29;20063;-67
2024/01/25 00:21:56;;;;;;;74.75;36.00;;;3.50;70.30;;;;;;4958018;28;20030;-67
2024/01/25 00:24:22;;;;;;;77.28;39.75;;;3.60;70.50;;;;;;4958554;28;20058;-68
2024/01/25 00:26:48;;;;;;;75.22;38.38;;;3.60;71.20;;;;;;4958222;28;20437;-68
2024/01/25 00:29:15;;;;;;;72.63;37.17;;;3.60;71.40;;;;;;4957900;28;20054;-68
2024/01/25 00:31:41;;;;;;;69.65;36.28;;;3.60;70.60;;;;;;4957807;28;20437;-67
2024/01/25 00:34:07;;;;;;;67.78;35.40;;;3.50;70.70;;;;;;4958152;28;20059;-66
2024/01/25 00:36:33;;;;;;;60.88;32.75;;;3.50;71.10;;;;;;4958220;28;20054;-65
2024/01/25 00:38:59;;;;;;;62.58;33.60;;;3.50;70.90;;;;;;4958017;28;20054;-68
2024/01/25 00:41:27;;;;;;;61.35;34.08;;;3.50;70.90;;;;;;4957658;28;20433;-68
2024/01/25 00:43:53;;;;;;;63.17;33.85;;;3.50;70.90;;;;;;4957951;28;20023;-68
2024/01/25 00:46:19;;;;;;;66.03;35.15;;;3.40;70.80;;;;;;4957694;28;20437;-68
2024/01/25 00:48:45;;;;;;;71.03;36.35;;;3.40;70.80;;;;;;4958121;28;20027;-67
2024/01/25 00:51:20;;;;;;;69.82;36.45;;;3.50;70.70;;;;;;4957502;28;20042;-68
2024/01/25 00:53:46;;;;;;;72.18;35.78;;;3.40;70.50;;;;;;4957405;28;20055;-68
2024/01/25 00:56:12;;;;;;;58.60;33.78;;;3.40;70.60;;;;;;4957483;28;20042;-67
2024/01/25 00:58:38;;;;;;;64.93;34.65;;;3.40;70.90;;;;;;4957035;29;20023;-68
2024/01/25 01:01:05;;;;;;;63.72;33.97;;;3.40;70.70;;;;;;4957689;28;20078;-67
2024/01/25 01:03:31;;;;;;;62.25;32.58;;;3.40;70.80;;;;;;4957805;28;20359;-67
2024/01/25 01:05:57;;;;;;;64.07;34.78;;;3.40;70.70;;;;;;4957636;28;20023;-67
2024/01/25 01:08:24;;;;;;;67.90;35.45;;;3.40;70.70;;;;;;4957583;28;20031;-67
2024/01/25 01:10:49;;;;;;;70.80;35.58;;;3.40;70.80;;;;;;4957342;28;20039;-66
2024/01/25 01:13:15;;;;;;;69.93;36.65;;;3.40;70.80;;;;;;4957796;28;20362;-66
2024/01/25 01:15:41;;;;;;;66.53;34.33;;;3.40;70.70;;;;;;4957283;28;20035;-67
2024/01/25 01:18:07;;;;;;;66.53;34.72;;;3.40;70.70;;;;;;4957185;28;20034;-67
2024/01/25 01:20:33;;;;;;;67.13;33.80;;;3.40;70.50;;;;;;4957226;28;20027;-68
2024/01/25 01:22:59;;;;;;;67.18;34.53;;;3.40;70.30;;;;;;4957642;28;20066;-65
2024/01/25 01:25:25;;;;;;;69.40;36.30;;;3.40;70.30;;;;;;4957674;28;20024;-66
2024/01/25 01:27:51;;;;;;;68.40;36.20;;;3.30;70.60;;;;;;4957125;28;20103;-66
2024/01/25 01:30:17;;;;;;;70.35;35.42;;;3.30;70.60;;;;;;4957616;28;20457;-66
2024/01/25 01:32:43;;;;;;;65.03;34.80;;;3.30;70.50;;;;;;4957575;28;20078;-68
2024/01/25 01:35:08;;;;;;;64.78;35.20;;;3.30;70.80;;;;;;4957090;28;20114;-68
2024/01/25 01:37:34;;;;;;;68.80;35.65;;;3.30;70.90;;;;;;4956940;28;20043;-67
2024/01/25 01:40:00;;;;;;;68.72;36.60;;;3.30;70.90;;;;;;4957254;28;20027;-67
2024/01/25 01:42:27;;;;;;;66.25;35.33;;;3.30;71.10;;;;;;4956890;28;20402;-67
2024/01/25 01:44:54;;;;;;;66.32;37.00;;;3.30;71.00;;;;;;4957260;28;20027;-67
2024/01/25 01:47:19;;;;;;;65.45;34.92;;;3.30;71.40;;;;;;4957500;28;20126;-68
2024/01/25 01:49:46;;;;;;;63.22;35.15;;;3.30;71.50;;;;;;4957488;28;20513;-65
2024/01/25 01:52:12;;;;;;;64.15;34.97;;;3.30;71.40;;;;;;4956663;28;20086;-66
2024/01/25 01:54:39;;;;;;;74.32;35.78;;;3.30;71.80;;;;;;4957189;28;20028;-65
2024/01/25 01:57:06;;;;;;;61.25;34.15;;;3.30;71.90;;;;;;4957057;28;20027;-68
2024/01/25 01:59:32;;;;;;;59.15;32.50;;;3.30;71.70;;;;;;4961024;28;20042;-65
2024/01/25 02:01:58;;;;;;;64.30;36.78;;;3.20;72.10;;;;;;4960794;28;20019;-68
2024/01/25 02:04:24;;;;;;;67.13;35.45;;;3.30;72.00;;;;;;4960590;28;20035;-67
2024/01/25 02:06:50;;;;;;;61.05;33.17;;;3.20;71.30;;;;;;4960519;28;20059;-67
2024/01/25 02:09:16;;;;;;;62.58;33.83;;;3.10;71.10;;;;;;4959507;28;20027;-67
2024/01/25 02:11:42;;;;;;;61.33;33.60;;;3.10;71.80;;;;;;4960799;28;20430;-67
2024/01/25 02:14:11;;;;;;;63.15;34.15;;;3.10;71.70;;;;;;4960894;28;20105;-67
2024/01/25 02:16:38;;;;;;;58.63;33.38;;;3.10;71.70;;;;;;4960228;28;20039;-69
2024/01/25 02:19:04;;;;;;;69.28;34.28;;;3.10;71.90;;;;;;4960240;28;20110;-67
2024/01/25 02:21:30;;;;;;;66.60;32.75;;;3.10;71.60;;;;;;4960506;28;20027;-67
2024/01/25 02:23:56;;;;;;;63.90;32.67;;;3.10;71.70;;;;;;4960735;28;20166;-67
2024/01/25 02:26:21;;;;;;;62.53;32.67;;;3.10;71.80;;;;;;4960233;28;20027;-67
2024/01/25 02:28:47;;;;;;;54.50;30.02;;;3.10;71.70;;;;;;4960391;28;20042;-65
2024/01/25 02:31:13;;;;;;;59.80;30.45;;;3.10;71.70;;;;;;4960276;28;20098;-65
2024/01/25 02:33:39;;;;;;;54.38;28.95;;;3.10;71.50;;;;;;4960077;28;20066;-67
2024/01/25 02:36:05;;;;;;;52.13;28.85;;;3.10;71.20;;;;;;4960073;28;20019;-67
2024/01/25 02:38:31;;;;;;;52.60;28.55;;;3.10;71.20;;;;;;4959898;28;20094;-67
2024/01/25 02:40:57;;;;;;;56.50;29.00;;;3.00;71.40;;;;;;4960213;28;20445;-67
2024/01/25 02:43:23;;;;;;;56.65;30.35;;;3.10;71.60;;;;;;4959818;28;20035;-65
2024/01/25 02:45:49;;;;;;;54.45;28.23;;;3.00;71.70;;;;;;4959884;28;20306;-67
2024/01/25 02:48:15;;;;;;;48.60;27.40;;;3.10;71.80;;;;;;4960350;28;20031;-67
2024/01/25 02:50:41;;;;;;;50.53;26.02;;;3.10;71.60;;;;;;4960021;28;20027;-67
2024/01/25 02:53:07;;;;;;;50.03;28.08;;;3.10;71.50;;;;;;4959400;28;20109;-67
2024/01/25 02:55:33;;;;;;;49.78;26.63;;;3.10;71.90;;;;;;4959951;28;20019;-67
2024/01/25 02:57:59;;;;;;;50.70;27.30;;;3.10;71.90;;;;;;4960091;28;20039;-67
2024/01/25 03:00:25;;;;;;;53.65;27.23;;;3.10;71.70;;;;;;4958615;28;20016;-67
2024/01/25 03:02:51;;;;;;;45.25;24.48;;;3.10;72.10;;;;;;4958524;28;20054;-67
2024/01/25 03:05:17;;;;;;;51.10;26.92;;;3.10;72.00;;;;;;4959509;28;20464;-67
2024/01/25 03:07:43;;;;;;;49.03;26.17;;;3.10;72.30;;;;;;4959710;28;20042;-67
2024/01/25 03:10:09;;;;;;;45.92;25.92;;;3.10;72.20;;;;;;4958975;28;20042;-65
2024/01/25 03:12:35;;;;;;;43.33;23.40;;;3.10;72.70;;;;;;4959309;28;20449;-66
2024/01/25 03:15:01;;;;;;;42.88;23.63;;;3.10;72.60;;;;;;4959357;28;20031;-66
2024/01/25 03:17:27;;;;;;;43.30;24.13;;;3.00;72.30;;;;;;4958252;28;20442;-66
2024/01/25 03:19:53;;;;;;;41.30;24.05;;;3.10;72.20;;;;;;4959519;28;20078;-66
2024/01/25 03:22:18;;;;;;;47.17;24.55;;;3.10;72.20;;;;;;4959147;28;20035;-66
2024/01/25 03:24:44;;;;;;;43.70;23.65;;;3.00;72.10;;;;;;4959404;28;20030;-66
2024/01/25 03:27:13;;;;;;;36.80;21.45;;;3.00;72.10;;;;;;4959131;28;20445;-66
2024/01/25 03:29:43;;;;;;;46.72;24.05;;;3.00;71.90;;;;;;4959031;28;20035;-66
2024/01/25 03:32:10;;;;;;;43.08;22.02;;;3.00;71.80;;;;;;4958963;28;20071;-66
2024/01/25 03:34:37;;;;;;;47.20;23.60;;;3.00;71.70;;;;;;4959199;28;20374;-66
2024/01/25 03:37:02;;;;;;;38.60;22.08;;;3.00;71.70;;;;;;4958894;28;20031;-66
2024/01/25 03:39:28;;;;;;;37.97;21.85;;;3.00;71.70;;;;;;4958879;28;20393;-67
2024/01/25 03:41:54;;;;;;;37.70;20.80;;;3.00;71.80;;;;;;4958920;28;20038;-65
2024/01/25 03:44:20;;;;;;;40.15;20.98;;;3.00;72.10;;;;;;4958800;28;20073;-68
2024/01/25 03:46:46;;;;;;;42.13;21.80;;;3.00;72.40;;;;;;4958734;28;20461;-67
2024/01/25 03:49:12;;;;;;;43.40;20.42;;;3.00;72.30;;;;;;4958650;28;20031;-67
2024/01/25 03:51:38;;;;;;;39.05;20.60;;;3.10;72.30;;;;;;4958367;28;20038;-68
2024/01/25 03:54:04;;;;;;;34.85;19.38;;;3.10;72.10;;;;;;4958649;28;20029;-67
2024/01/25 03:56:30;;;;;;;35.22;19.42;;;3.10;72.10;;;;;;4958572;28;20033;-67
2024/01/25 03:58:55;;;;;;;39.03;21.08;;;3.20;71.80;;;;;;4958713;28;20023;-67
2024/01/25 04:01:22;;;;;;;40.08;19.88;;;3.20;71.50;;;;;;4958866;28;20035;-66
2024/01/25 04:03:47;;;;;;;37.20;18.85;;;3.10;71.20;;;;;;4958470;28;20078;-67
2024/01/25 04:06:13;;;;;;;36.30;19.23;;;3.10;71.60;;;;;;4958598;28;20020;-67
2024/01/25 04:08:39;;;;;;;34.78;18.67;;;3.10;71.50;;;;;;4958367;28;20023;-66
2024/01/25 04:11:05;;;;;;;34.42;18.02;;;3.10;71.40;;;;;;4958864;28;20046;-67
2024/01/25 04:13:31;;;;;;;35.17;19.17;;;3.10;71.40;;;;;;4958218;28;20066;-67
2024/01/25 04:15:57;;;;;;;34.00;17.85;;;3.10;71.20;;;;;;4958483;28;20031;-67
2024/01/25 04:18:23;;;;;;;35.58;19.77;;;3.10;71.30;;;;;;4958358;28;20042;-67
2024/01/25 04:20:50;;;;;;;34.38;18.88;;;3.10;71.30;;;;;;4957622;28;20075;-67
2024/01/25 04:23:16;;;;;;;35.80;19.40;;;3.10;71.30;;;;;;4957951;28;20023;-67
2024/01/25 04:25:42;;;;;;;36.35;18.80;;;3.10;71.60;;;;;;4958057;28;20080;-67
2024/01/25 04:28:09;;;;;;;34.67;17.83;;;3.00;71.20;;;;;;4958017;28;20051;-67
2024/01/25 04:30:35;;;;;;;36.90;18.15;;;3.00;71.10;;;;;;4958192;28;20039;-67
2024/01/25 04:33:01;;;;;;;29.83;16.23;;;3.00;71.50;;;;;;4957878;28;20038;-67
2024/01/25 04:35:27;;;;;;;34.53;18.15;;;3.10;71.40;;;;;;4958363;28;20377;-67
2024/01/25 04:37:53;;;;;;;32.47;17.42;;;3.10;71.40;;;;;;4957718;28;20019;-67
2024/01/25 04:40:20;;;;;;;34.58;18.58;;;3.10;71.60;;;;;;4958315;28;20023;-67
2024/01/25 04:42:45;;;;;;;34.63;17.90;;;3.10;71.60;;;;;;4957742;28;20520;-67
2024/01/25 04:45:11;;;;;;;31.15;16.00;;;3.10;71.50;;;;;;4958003;28;20102;-67
2024/01/25 04:47:39;;;;;;;34.90;17.83;;;3.10;71.40;;;;;;4957941;28;20027;-67
2024/01/25 04:50:06;;;;;;;32.78;18.40;;;3.10;71.50;;;;;;4957058;29;20027;-67
2024/01/25 04:52:32;;;;;;;30.98;16.40;;;3.10;71.30;;;;;;4957246;28;20470;-67
2024/01/25 04:54:58;;;;;;;33.58;17.85;;;3.10;71.60;;;;;;4958100;28;20101;-67
2024/01/25 04:57:24;;;;;;;32.17;16.77;;;3.10;71.40;;;;;;4957477;28;20058;-67
2024/01/25 04:59:49;;;;;;;32.63;17.08;;;3.10;71.30;;;;;;4958043;28;20038;-67
2024/01/25 05:02:15;;;;;;;32.35;15.55;;;3.10;71.30;;;;;;4957948;28;20469;-67
2024/01/25 05:04:41;;;;;;;28.98;15.50;;;3.10;71.60;;;;;;4957349;28;20055;-67
2024/01/25 05:07:07;;;;;;;33.53;16.05;;;3.20;71.50;;;;;;4957954;28;20043;-67
2024/01/25 05:09:33;;;;;;;27.48;15.70;;;3.20;71.50;;;;;;4957360;28;20341;-67
2024/01/25 05:12:01;;;;;;;30.67;16.23;;;3.20;71.50;;;;;;4957622;28;20042;-67
2024/01/25 05:14:27;;;;;;;31.70;16.00;;;3.20;71.70;;;;;;4957532;28;20081;-66
2024/01/25 05:16:53;;;;;;;41.47;24.45;;;3.30;71.40;;;;;;4957528;28;20496;-67
2024/01/25 05:19:20;;;;;;;38.15;20.77;;;3.20;72.00;;;;;;4957761;28;20027;-67
2024/01/25 05:21:46;;;;;;;32.08;16.75;;;3.30;72.00;;;;;;4957690;28;20354;-67
2024/01/25 05:24:12;;;;;;;32.38;16.30;;;3.30;72.00;;;;;;4957423;28;20114;-67
2024/01/25 05:26:38;;;;;;;30.27;16.67;;;3.30;71.40;;;;;;4957426;28;20505;-67
2024/01/25 05:29:04;;;;;;;29.90;15.68;;;3.30;71.80;;;;;;4957079;28;20066;-67
2024/01/25 05:31:30;;;;;;;39.08;23.08;;;3.30;71.20;;;;;;4958029;28;20066;-67
2024/01/25 05:33:56;;;;;;;29.15;16.23;;;3.30;71.00;;;;;;4961677;28;20027;-67
2024/01/25 05:36:22;;;;;;;30.13;16.30;;;3.30;71.50;;;;;;4961098;28;20034;-67
2024/01/25 05:38:48;;;;;;;27.58;15.77;;;3.30;72.20;;;;;;4961696;28;20042;-67
2024/01/25 05:41:14;;;;;;;30.42;14.80;;;3.30;72.10;;;;;;4961183;28;20019;-67
2024/01/25 05:43:40;;;;;;;34.75;16.10;;;3.40;72.30;;;;;;4960986;28;20027;-67
2024/01/25 05:46:06;;;;;;;30.58;14.82;;;3.40;71.90;;;;;;4961143;28;20349;-67
2024/01/25 05:48:32;;;;;;;30.40;15.98;;;3.40;72.10;;;;;;4961142;28;20399;-67
2024/01/25 05:50:58;;;;;;;28.95;14.88;;;3.50;72.40;;;;;;4961388;28;20118;-67
2024/01/25 05:53:24;;;;;;;28.02;14.98;;;3.50;71.70;;;;;;4960493;28;20055;-67
2024/01/25 05:55:50;;;;;;;32.50;15.90;;;3.50;71.60;;;;;;4960704;28;20034;-67
2024/01/25 05:58:15;;;;;;;30.27;16.52;;;3.60;71.50;;;;;;4961133;28;20082;-68
2024/01/25 06:00:42;;;;;;;36.08;19.05;;;3.50;71.30;;;;;;4960669;28;20034;-67
2024/01/25 06:03:08;;;;;;;37.83;19.80;;;3.50;71.40;;;;;;4960817;28;20024;-67
2024/01/25 06:05:34;;;;;;;35.08;19.42;;;3.50;71.60;;;;;;4960634;28;20106;-67
2024/01/25 06:08:00;;;;;;;33.28;17.42;;;3.40;71.30;;;;;;4960567;28;20031;-67
2024/01/25 06:10:26;;;;;;;33.42;18.02;;;3.40;71.30;;;;;;4960567;28;20058;-66
2024/01/25 06:12:52;;;;;;;34.90;18.70;;;3.40;71.40;;;;;;4960497;28;20035;-67
2024/01/25 06:15:18;;;;;;;37.63;18.80;;;3.30;71.60;;;;;;4961002;28;20361;-67
2024/01/25 06:17:44;;;;;;;35.83;18.63;;;3.30;71.80;;;;;;4960358;28;20445;-67
2024/01/25 06:20:10;;;;;;;33.83;17.42;;;3.30;71.60;;;;;;4960373;28;20019;-67
2024/01/25 06:22:36;;;;;;;35.42;18.95;;;3.30;71.50;;;;;;4960464;28;20035;-67
2024/01/25 06:25:03;;;;;;;37.03;18.73;;;3.30;71.30;;;;;;4960774;28;20089;-67
2024/01/25 06:27:29;;;;;;;34.80;19.75;;;3.20;71.30;;;;;;4960150;28;20504;-67
2024/01/25 06:29:55;;;;;;;42.85;21.40;;;3.20;71.60;;;;;;4960136;28;20092;-67
2024/01/25 06:32:21;;;;;;;39.95;21.52;;;3.20;71.70;;;;;;4960536;29;20035;-67
2024/01/25 06:34:47;;;;;;;39.50;22.05;;;3.20;72.00;;;;;;4960010;28;20023;-66
2024/01/25 06:37:15;;;;;;;39.55;21.35;;;3.20;72.00;;;;;;4960189;28;20031;-67
2024/01/25 06:39:41;;;;;;;37.83;19.88;;;3.20;71.80;;;;;;4959902;28;20082;-68
2024/01/25 06:42:07;;;;;;;39.90;19.52;;;3.20;71.90;;;;;;4959817;28;20023;-67
2024/01/25 06:44:33;;;;;;;41.30;21.25;;;3.20;72.00;;;;;;4959681;28;20023;-67
2024/01/25 06:46:59;;;;;;;56.17;34.83;;;3.20;72.10;;;;;;4960083;28;20039;-67
2024/01/25 06:49:25;;;;;;;49.08;28.70;;;3.20;72.70;;;;;;4960304;28;20055;-65
2024/01/25 06:51:51;;;;;;;46.97;22.63;;;3.20;72.60;;;;;;4959387;28;20043;-67
2024/01/25 06:54:17;;;;;;;43.78;22.58;;;3.20;72.70;;;;;;4959975;28;20034;-65
2024/01/25 06:56:43;;;;;;;47.83;25.20;;;3.30;72.40;;;;;;4959806;28;20035;-67
2024/01/25 06:59:09;;;;;;;42.80;21.98;;;3.30;73.00;;;;;;4959629;28;20038;-67
2024/01/25 07:01:35;;;;;;;41.92;19.90;;;3.30;72.30;;;;;;4959516;28;20027;-67
2024/01/25 07:04:01;;;;;;;46.72;22.63;;;3.20;72.30;;;;;;4958594;28;20398;-65
2024/01/25 07:06:28;;;;;;;41.22;21.13;;;3.20;72.30;;;;;;4960210;28;20085;-68
2024/01/25 07:08:54;;;;;;;47.42;23.02;;;3.20;72.50;;;;;;4959409;28;20063;-66
2024/01/25 07:11:21;;;;;;;43.95;22.48;;;3.30;72.60;;;;;;4959384;28;20027;-66
2024/01/25 07:13:47;;;;;;;46.40;21.92;;;3.30;72.20;;;;;;4959283;28;20078;-67
2024/01/25 07:16:13;;;;;;;47.65;24.77;;;3.30;72.60;;;;;;4959316;28;20042;-66
2024/01/25 07:18:39;;;;;;;53.80;23.38;;;3.30;72.80;;;;;;4959232;28;20019;-66
2024/01/25 07:21:05;;;;;;;47.22;23.85;;;3.30;73.00;;;;;;4959778;28;20038;-66
2024/01/25 07:23:33;;;;;;;49.22;24.17;;;3.40;73.30;;;;;;4959641;28;20027;-66
2024/01/25 07:25:59;;;;;;;44.53;23.05;;;3.40;73.10;;;;;;4959630;28;20086;-66
2024/01/25 07:28:25;;;;;;;43.15;21.25;;;3.50;73.50;;;;;;4960163;28;20334;-66
2024/01/25 07:30:51;;;;;;;49.42;23.00;;;3.60;73.00;;;;;;4959368;28;20031;-66
2024/01/25 07:33:17;;;;;;;49.78;23.17;;;3.60;73.20;;;;;;4961671;28;20035;-65
2024/01/25 07:35:46;;;;;;;47.22;24.13;;;3.60;73.10;;;;;;4960875;28;20094;-66
2024/01/25 07:38:12;;;;;;;60.67;29.77;;;3.70;73.30;;;;;;4961150;28;20390;-66
2024/01/25 07:40:38;;;;;;;46.20;24.20;;;3.80;74.50;;;;;;4961681;28;20055;-66
2024/01/25 07:43:04;;;;;;;45.72;22.58;;;3.90;74.50;;;;;;4959582;28;20095;-67
2024/01/25 07:45:32;;;;;;;45.05;22.83;;;3.90;78.00;;;;;;4958827;28;20061;-66
2024/01/25 07:47:58;;;;;;;49.53;24.48;;;4.20;77.60;;;;;;4958682;28;20480;-67
2024/01/25 07:50:24;;;;;;;48.83;23.58;;;4.50;77.70;;;;;;4958937;28;20165;-68
2024/01/25 07:52:51;;;;;;;60.30;28.20;;;4.70;76.50;;;;;;4958353;28;20047;-66
2024/01/25 07:55:17;;;;;;;62.83;31.25;;;4.90;76.00;;;;;;4958869;28;20110;-67
2024/01/25 07:57:43;;;;;;;57.15;29.42;;;5.10;75.50;;;;;;4958717;28;20345;-67
2024/01/25 08:00:09;;;;;;;46.03;23.05;;;5.30;75.00;;;;;;4958805;28;20031;-67
2024/01/25 08:02:40;;;;;;;46.55;25.65;;;5.40;74.30;;;;;;4958365;28;20516;-67
2024/01/25 08:05:06;;;;;;;46.20;24.40;;;5.60;74.40;;;;;;4958433;28;20055;-67
2024/01/25 08:07:33;;;;;;;44.70;23.42;;;5.70;74.00;;;;;;4958407;28;20110;-67
2024/01/25 08:09:59;;;;;;;43.83;24.30;;;5.90;73.60;;;;;;4957428;28;20079;-67
2024/01/25 08:12:25;;;;;;;42.33;24.20;;;6.00;73.40;;;;;;4958260;28;20023;-67
2024/01/25 08:14:52;;;;;;;46.95;23.77;;;6.10;73.00;;;;;;4958274;28;20035;-67
2024/01/25 08:17:18;;;;;;;42.00;22.50;;;6.30;72.80;;;;;;4958154;28;20071;-67
2024/01/25 08:19:46;;;;;;;45.35;24.15;;;6.40;72.50;;;;;;4958399;28;20031;-67
2024/01/25 08:22:12;;;;;;;49.78;25.38;;;6.60;72.20;;;;;;4958010;28;20020;-67
2024/01/25 08:24:41;;;;;;;50.83;27.23;;;6.80;71.50;;;;;;4958624;28;20019;-67
2024/01/25 08:27:09;;;;;;;45.97;25.15;;;6.90;71.20;;;;;;4958009;28;20038;-67
2024/01/25 08:29:37;;;;;;;49.00;24.30;;;7.00;71.20;;;;;;4957996;28;20039;-67
2024/01/25 08:32:03;;;;;;;54.78;28.70;;;7.10;70.60;;;;;;4957288;29;20028;-67
2024/01/25 08:34:29;;;;;;;92.03;50.08;;;7.30;70.60;;;;;;4957914;28;20082;-65
2024/01/25 08:36:55;;;;;;;90.07;47.63;;;7.40;70.50;;;;;;4958076;28;20020;-67
2024/01/25 08:39:21;;;;;;;94.35;47.15;;;7.50;70.70;;;;;;4957834;28;20031;-67
2024/01/25 08:41:49;;;;;;;88.78;44.28;;;7.60;70.60;;;;;;4957835;28;20082;-67
2024/01/25 08:44:15;;;;;;;70.72;34.05;;;7.80;70.50;;;;;;4957656;28;20457;-67
2024/01/25 08:46:42;;;;;;;84.13;43.95;;;7.90;70.00;;;;;;4957693;28;20041;-68
2024/01/25 08:49:09;;;;;;;71.32;38.92;;;8.00;69.80;;;;;;4957565;29;20031;-68
2024/01/25 08:51:36;;;;;;;74.85;39.40;;;8.20;69.90;;;;;;4956307;28;20343;-67
2024/01/25 08:54:03;;;;;;;73.35;41.58;;;8.30;69.80;;;;;;4956277;28;20043;-68
2024/01/25 08:56:29;;;;;;;69.07;39.63;;;8.40;69.40;;;;;;4955129;28;20031;-68
2024/01/25 08:58:55;;;;;;;73.07;41.17;;;8.50;69.40;;;;;;4956961;28;20027;-68
2024/01/25 09:01:21;;;;;;;65.30;34.92;;;8.60;68.80;;;;;;4956634;28;20038;-67
2024/01/25 09:03:48;;;;;;;51.97;27.42;;;8.70;68.90;;;;;;4956726;28;20106;-67
2024/01/25 09:06:15;;;;;;;51.63;28.60;;;8.90;68.70;;;;;;4956496;28;20032;-67
2024/01/25 09:08:41;;;;;;;49.90;27.67;;;8.90;68.40;;;;;;4956868;28;20027;-68
2024/01/25 09:11:06;;;;;;;43.30;23.85;;;9.10;67.90;;;;;;4957158;28;20483;-68
2024/01/25 09:13:32;;;;;;;49.13;27.92;;;9.20;67.80;;;;;;4955562;28;20545;-67
2024/01/25 09:15:58;;;;;;;53.97;29.02;;;9.40;67.70;;;;;;4956558;28;20028;-67
2024/01/25 09:18:25;;;;;;;66.68;39.83;;;9.50;67.60;;;;;;4956452;28;20038;-68
2024/01/25 09:20:51;;;;;;;72.15;40.88;;;9.60;68.00;;;;;;4956776;28;20050;-67
2024/01/25 09:23:17;;;;;;;97.32;55.80;;;9.80;67.80;;;;;;4956326;28;20421;-66
2024/01/25 09:25:45;;;;;;;40.60;23.85;;;9.90;67.10;;;;;;4956674;28;20023;-68
2024/01/25 09:28:14;;;;;;;41.95;22.35;;;10.00;67.00;;;;;;4955588;29;20074;-68
2024/01/25 09:30:41;;;;;;;41.85;24.48;;;10.20;67.00;;;;;;4956358;28;20039;-68
2024/01/25 09:33:07;;;;;;;43.05;23.85;;;10.30;66.60;;;;;;4956333;28;20034;-68
2024/01/25 09:35:34;;;;;;;57.72;31.38;;;10.40;66.20;;;;;;4956274;28;20039;-68
2024/01/25 09:38:00;;;;;;;51.63;27.63;;;10.50;66.20;;;;;;4956495;28;20509;-66
2024/01/25 09:40:26;;;;;;;45.92;24.77;;;10.60;66.00;;;;;;4956545;28;20131;-68
2024/01/25 09:42:52;;;;;;;44.03;24.40;;;10.70;65.70;;;;;;4955174;28;20031;-68
2024/01/25 09:45:19;;;;;;;36.88;20.73;;;10.90;65.80;;;;;;4956205;28;20023;-68
2024/01/25 09:47:46;;;;;;;38.17;20.30;;;10.90;65.60;;;;;;4956754;28;20074;-67
2024/01/25 09:50:12;;;;;;;34.95;19.58;;;11.10;65.50;;;;;;4956444;28;20143;-68
2024/01/25 09:52:38;;;;;;;38.17;20.05;;;11.20;65.60;;;;;;4907825;28;1417959;-68
2024/01/25 09:55:07;;;;;;;40.97;21.75;;;11.30;65.10;;;;;;4956943;28;20031;-68
2024/01/25 09:57:38;;;;;;;33.83;18.52;;;11.40;64.60;;;;;;4957028;28;20067;-66
2024/01/25 10:00:09;;;;;;;37.97;20.17;;;11.40;64.40;;;;;;4957417;28;20436;-67
2024/01/25 10:02:35;;;;;;;38.42;21.10;;;11.60;64.50;;;;;;4956788;28;20054;-68
2024/01/25 10:05:02;;;;;;;31.02;18.67;;;11.60;64.40;;;;;;4956935;28;20021;-68
2024/01/25 10:07:42;;;;;;;41.25;23.20;;;11.80;63.80;;;;;;4955951;28;20172;-68
2024/01/25 10:10:09;;;;;;;35.30;21.30;;;11.80;63.50;;;;;;4956801;28;20059;-68
2024/01/25 10:12:35;;;;;;;34.17;19.73;;;11.90;63.60;;;;;;4955786;28;20035;-68
2024/01/25 10:15:02;;;;;;;36.55;22.50;;;11.90;63.10;;;;;;4957054;28;20146;-68
2024/01/25 10:17:29;;;;;;;36.55;20.67;;;11.90;62.60;;;;;;4956697;28;20334;-67
2024/01/25 10:19:55;;;;;;;36.08;20.98;;;12.10;62.40;;;;;;4959222;28;20041;-68
2024/01/25 10:22:22;;;;;;;38.60;21.95;;;12.10;62.80;;;;;;4960243;28;20027;-67
2024/01/25 10:24:53;;;;;;;36.83;22.33;;;12.10;62.50;;;;;;4960244;28;20031;-68
2024/01/25 10:27:19;;;;;;;34.42;21.05;;;12.20;62.90;;;;;;4960233;28;20059;-68
2024/01/25 10:29:45;;;;;;;30.98;19.08;;;12.20;62.70;;;;;;4960222;28;20038;-68
2024/01/25 10:32:12;;;;;;;30.15;18.02;;;12.40;62.40;;;;;;4960114;28;20531;-68
2024/01/25 10:34:39;;;;;;;31.55;18.40;;;12.40;62.10;;;;;;4960612;28;20023;-68
2024/01/25 10:37:08;;;;;;;34.38;20.55;;;12.40;62.20;;;;;;4959134;29;20062;-68
2024/01/25 10:39:34;;;;;;;31.80;19.70;;;12.50;61.90;;;;;;4960276;28;20148;-68
2024/01/25 10:42:00;;;;;;;35.10;19.55;;;12.60;61.10;;;;;;4960443;28;20023;-68
2024/01/25 10:44:27;;;;;;;30.08;19.13;;;12.60;60.50;;;;;;4960198;28;20090;-68
2024/01/25 10:46:57;;;;;;;31.05;18.35;;;12.70;60.80;;;;;;4960166;28;20031;-68
2024/01/25 10:49:24;;;;;;;31.27;17.63;;;12.70;61.20;;;;;;5227231;23;20046;-69
2024/01/25 10:51:50;;;;;;;32.85;18.25;;;12.80;61.20;;;;;;4979325;28;20082;-69
2024/01/25 10:54:16;;;;;;;32.28;17.90;;;12.80;60.80;;;;;;4979519;28;20054;-69
2024/01/25 10:56:43;;;;;;;30.60;18.02;;;12.90;60.60;;;;;;4979240;28;20042;-69
2024/01/25 10:59:11;;;;;;;29.23;17.13;;;12.90;60.70;;;;;;4971383;28;20027;-69
2024/01/25 11:01:37;;;;;;;29.20;16.45;;;12.90;60.80;;;;;;4959548;28;20452;-69
2024/01/25 11:04:11;;;;;;;29.27;17.13;;;13.00;60.20;;;;;;4959507;28;20416;-69
2024/01/25 11:06:37;;;;;;;33.60;20.67;;;13.10;60.50;;;;;;4959767;28;20043;-69
2024/01/25 11:09:05;;;;;;;33.00;19.60;;;13.10;60.20;;;;;;4959723;28;20023;-69
2024/01/25 11:11:32;;;;;;;38.45;20.92;;;13.20;59.70;;;;;;4959575;28;20459;-69
2024/01/25 11:13:59;;;;;;;33.33;18.85;;;13.20;58.90;;;;;;4959339;28;20106;-69
2024/01/25 11:16:34;;;;;;;27.38;17.27;;;13.20;59.20;;;;;;4959246;28;20028;-69
2024/01/25 11:19:06;;;;;;;32.25;18.65;;;13.30;58.70;;;;;;4958105;28;20413;-69
2024/01/25 11:21:43;;;;;;;29.17;16.73;;;13.40;57.50;;;;;;4959684;28;20024;-69
2024/01/25 11:24:16;;;;;;;28.58;17.20;;;13.40;56.90;;;;;;4959129;28;20062;-69
2024/01/25 11:26:44;;;;;;;;;;;13.40;54.20;;;;;;4959851;28;20027;-69
2024/01/25 11:29:14;;;;;;;26.65;16.15;;;13.40;54.20;;;;;;4958954;28;19975;-69
2024/01/25 11:31:40;;;;;;;27.17;16.00;;;13.50;55.00;;;;;;4959255;28;20031;-69
2024/01/25 11:34:06;;;;;;;28.77;16.58;;;13.50;56.00;;;;;;4958992;28;20054;-69
2024/01/25 11:36:32;;;;;;;24.13;14.27;;;13.60;55.80;;;;;;4958940;28;20023;-69
2024/01/25 11:38:58;;;;;;;26.20;15.02;;;13.70;55.60;;;;;;4958946;28;20027;-69
2024/01/25 11:41:24;;;;;;;23.75;14.35;;;13.70;54.20;;;;;;4958817;28;20442;-69
2024/01/25 11:43:50;;;;;;;23.58;14.48;;;13.80;55.00;;;;;;4958798;28;20023;-69
2024/01/25 11:46:17;;;;;;;23.98;14.50;;;13.90;55.90;;;;;;4958935;28;20055;-69
2024/01/25 11:48:43;;;;;;;25.58;14.35;;;14.00;55.70;;;;;;4958551;28;20035;-69
2024/01/25 11:51:11;;;;;;;22.75;12.95;;;14.00;54.40;;;;;;4958939;28;20131;-69
2024/01/25 11:53:37;;;;;;;22.88;13.85;;;14.10;53.70;;;;;;4958822;28;20098;-69
2024/01/25 11:56:07;;;;;;;25.13;14.13;;;14.10;53.30;;;;;;4958611;28;20039;-69
2024/01/25 11:58:33;;;;;;;21.80;13.27;;;14.10;53.20;;;;;;4958838;28;20118;-69
2024/01/25 12:00:59;;;;;;;22.13;13.35;;;14.10;54.20;;;;;;4957483;29;20357;-69
2024/01/25 12:03:25;;;;;;;22.52;13.35;;;14.20;54.10;;;;;;4958658;28;20421;-69
2024/01/25 12:05:52;;;;;;;25.35;14.85;;;14.30;54.10;;;;;;4958850;28;20055;-69
2024/01/25 12:08:18;;;;;;;23.67;13.63;;;14.30;54.50;;;;;;4958211;28;20027;-69
2024/01/25 12:10:44;;;;;;;24.67;14.70;;;14.40;54.60;;;;;;4958465;28;20023;-69
2024/01/25 12:13:10;;;;;;;24.15;14.27;;;14.40;54.60;;;;;;4958720;28;20042;-69
2024/01/25 12:15:36;;;;;;;24.65;14.52;;;14.40;54.70;;;;;;4958484;28;20023;-69
2024/01/25 12:18:02;;;;;;;24.60;14.48;;;14.40;53.90;;;;;;5212950;23;20105;-69
2024/01/25 12:20:29;;;;;;;26.13;14.75;;;14.40;53.40;;;;;;4958640;28;20055;-69
2024/01/25 12:22:58;;;;;;;23.02;14.00;;;14.40;54.30;;;;;;4958614;28;20031;-69
2024/01/25 12:25:23;;;;;;;26.63;15.10;;;14.50;54.50;;;;;;4957980;28;20026;-69
2024/01/25 12:27:50;;;;;;;25.00;14.73;;;14.50;54.90;;;;;;4958116;28;20043;-69
2024/01/25 12:30:16;;;;;;;22.98;15.18;;;14.60;54.90;;;;;;4958408;28;20038;-68